Time;durP1;ratioP1;P1;durP2;ratioP2;P2;SDS_P1;SDS_P2;PMS_P1;PMS_P2;Temp;Humidity;BMP_temperature;BMP_pressure;BME280_temperature;BME280_humidity;BME280_pressure;Samples;Min_cycle;Max_cycle;Signal;HPM_P1;HPM_P2
2023/05/13 00:01:37;;;;;;;58.38;55.38;;;;;;;22.01;49.61;101919.56;5056162;28;20067;-86
2023/05/13 00:04:05;;;;;;;56.78;53.80;;;;;;;22.00;49.66;101923.44;5073821;28;20479;-85
2023/05/13 00:06:31;;;;;;;58.97;55.83;;;;;;;21.97;49.60;101922.09;5056017;28;20053;-85
2023/05/13 00:08:57;;;;;;;61.40;58.10;;;;;;;21.96;49.36;101923.19;5074044;28;20346;-85
2023/05/13 00:11:22;;;;;;;58.40;55.25;;;;;;;21.95;49.72;101921.56;5073818;28;20060;-85
2023/05/13 00:13:48;;;;;;;61.13;57.83;;;;;;;21.94;49.52;101928.16;5056380;28;20028;-83
2023/05/13 00:16:13;;;;;;;59.00;55.70;;;;;;;21.93;49.64;101923.78;5074324;28;20029;-84
2023/05/13 00:18:39;;;;;;;57.28;54.40;;;;;;;21.91;49.09;101914.97;5055879;28;20064;-86
2023/05/13 00:21:05;;;;;;;58.95;55.85;;;;;;;21.89;49.28;101917.19;5073757;28;20044;-85
2023/05/13 00:23:31;;;;;;;59.08;55.88;;;;;;;21.87;49.26;101924.91;5056110;28;20499;-85
2023/05/13 00:25:57;;;;;;;60.28;57.08;;;;;;;21.86;49.52;101923.28;5056263;28;20036;-85
2023/05/13 00:28:23;;;;;;;58.15;54.97;;;;;;;21.85;49.40;101916.16;5073936;28;20081;-85
2023/05/13 00:30:48;;;;;;;59.67;56.25;;;;;;;21.83;49.32;101919.19;5073208;28;20559;-85
2023/05/13 00:33:14;;;;;;;58.17;54.97;;;;;;;21.81;49.53;101918.66;5073837;28;20108;-85
2023/05/13 00:35:40;;;;;;;57.75;54.63;;;;;;;21.80;49.29;101914.28;5055630;28;20034;-85
2023/05/13 00:38:05;;;;;;;57.03;53.97;;;;;;;21.78;49.69;101919.25;5055662;28;20060;-86
2023/05/13 00:40:35;;;;;;;59.58;56.33;;;;;;;21.77;49.29;101917.59;5073349;28;20476;-86
2023/05/13 00:43:01;;;;;;;58.20;55.10;;;;;;;21.76;49.66;101912.38;5073519;28;20028;-86
2023/05/13 00:45:26;;;;;;;58.20;55.10;;;;;;;21.73;49.54;101915.72;5039241;28;20036;-86
2023/05/13 00:47:52;;;;;;;60.08;56.65;;;;;;;21.73;49.31;101918.47;5073335;28;20041;-85
2023/05/13 00:50:18;;;;;;;57.42;54.30;;;;;;;21.72;49.55;101925.91;5055731;28;20033;-85
2023/05/13 00:52:43;;;;;;;58.92;55.67;;;;;;;21.70;49.75;101921.81;5073699;28;20116;-84
2023/05/13 00:55:10;;;;;;;57.83;54.70;;;;;;;21.69;49.40;101926.47;5056152;28;20064;-85
2023/05/13 00:57:36;;;;;;;58.33;55.35;;;;;;;21.67;49.48;101927.88;5073317;28;20031;-86
2023/05/13 01:00:04;;;;;;;57.38;54.38;;;;;;;21.66;49.18;101927.03;5076648;28;20052;-85
2023/05/13 01:02:42;;;;;;;59.53;56.13;;;;;;;21.64;49.50;101925.69;5077473;28;20028;-86
2023/05/13 01:05:31;;;;;;;56.47;53.60;;;;;;;21.63;49.31;101926.81;5077343;28;20441;-86
2023/05/13 01:08:08;;;;;;;56.25;53.25;;;;;;;21.59;49.61;101923.81;5077931;28;20039;-86
2023/05/13 01:10:59;;;;;;;57.22;54.22;;;;;;;21.57;49.48;101917.78;5066653;28;20051;-85
2023/05/13 01:13:30;;;;;;;55.67;52.72;;;;;;;21.56;49.09;101919.72;5086041;28;20045;-86
2023/05/13 01:16:17;;;;;;;56.47;53.55;;;;;;;21.54;49.78;101910.91;5060493;28;20068;-86
2023/05/13 01:18:46;;;;;;;55.92;53.03;;;;;;;21.51;49.35;101927.19;5059484;28;20065;-85
2023/05/13 01:21:12;;;;;;;56.30;53.08;;;;;;;21.51;49.72;101925.25;5059370;28;20024;-85
2023/05/13 01:23:37;;;;;;;57.78;54.75;;;;;;;21.49;49.29;101924.72;5077308;28;20346;-85
2023/05/13 01:26:03;;;;;;;57.20;54.13;;;;;;;21.47;49.55;101921.47;5042568;28;20590;-85
2023/05/13 01:28:28;;;;;;;58.08;54.80;;;;;;;21.47;49.34;101913.22;5059340;28;20032;-85
2023/05/13 01:30:55;;;;;;;56.28;53.28;;;;;;;21.45;49.58;101922.84;5076477;28;20534;-84
2023/05/13 01:33:22;;;;;;;54.88;52.08;;;;;;;21.43;49.46;101917.63;5076723;28;20162;-85
2023/05/13 01:35:47;;;;;;;54.78;51.85;;;;;;;21.43;49.30;101923.13;5059455;28;20131;-84
2023/05/13 01:38:14;;;;;;;58.17;55.10;;;;;;;21.43;49.39;101914.06;5058553;28;20538;-84
2023/05/13 01:40:40;;;;;;;55.92;53.05;;;;;;;21.40;48.99;101923.69;5076717;28;20509;-86
2023/05/13 01:43:06;;;;;;;56.47;53.40;;;;;;;21.38;49.59;101923.97;5058915;28;20078;-84
2023/05/13 01:45:32;;;;;;;55.33;52.45;;;;;;;21.39;49.65;101922.03;5076854;28;20040;-85
2023/05/13 01:47:58;;;;;;;56.75;53.65;;;;;;;21.36;49.50;101917.91;5058978;28;20037;-85
2023/05/13 01:50:24;;;;;;;55.60;52.28;;;;;;;21.35;49.47;101921.78;5058753;28;20028;-84
2023/05/13 01:52:49;;;;;;;55.75;52.85;;;;;;;21.33;49.76;101915.75;5076647;28;20456;-84
2023/05/13 01:55:15;;;;;;;54.60;51.60;;;;;;;21.33;49.42;101917.69;5041817;28;20040;-85
2023/05/13 01:57:40;;;;;;;53.90;51.10;;;;;;;21.32;49.20;101921.53;5041818;28;20040;-85
2023/05/13 02:00:06;;;;;;;53.90;51.05;;;;;;;21.30;49.60;101918.25;5076495;28;20052;-85
2023/05/13 02:02:32;;;;;;;54.47;51.67;;;;;;;21.29;49.41;101924.84;5076200;28;20036;-84
2023/05/13 02:04:57;;;;;;;54.38;51.08;;;;;;;21.27;49.11;101924.31;5058572;28;20040;-85
2023/05/13 02:07:23;;;;;;;54.53;51.70;;;;;;;21.25;49.34;101921.88;5076470;28;20057;-83
2023/05/13 02:09:48;;;;;;;53.70;50.97;;;;;;;21.24;49.48;101916.63;5041405;28;20128;-85
2023/05/13 02:12:13;;;;;;;56.25;53.25;;;;;;;21.22;49.60;101916.09;5058209;28;20072;-85
2023/05/13 02:14:39;;;;;;;58.90;55.90;;;;;;;21.20;49.46;101921.09;5076501;28;20041;-86
2023/05/13 02:17:04;;;;;;;54.45;51.45;;;;;;;21.20;49.25;101923.84;5058461;28;20037;-85
2023/05/13 02:19:30;;;;;;;54.97;52.08;;;;;;;21.16;49.16;101924.38;5057912;28;20490;-85
2023/05/13 02:21:55;;;;;;;53.58;50.63;;;;;;;21.14;49.05;101923.88;5058611;28;20033;-81
2023/05/13 02:24:20;;;;;;;58.58;54.67;;;;;;;21.14;49.11;101923.88;5082923;28;20044;-84
2023/05/13 02:26:46;;;;;;;53.35;50.65;;;;;;;21.12;49.29;101928.81;5085499;28;20488;-83
2023/05/13 02:29:11;;;;;;;53.67;50.83;;;;;;;21.11;49.29;101918.09;5079433;28;20055;-83
2023/05/13 02:31:37;;;;;;;55.65;52.75;;;;;;;21.09;49.29;101926.66;5077611;28;20139;-85
2023/05/13 02:34:02;;;;;;;54.00;50.92;;;;;;;21.07;49.15;101925.28;5057962;28;20139;-85
2023/05/13 02:36:28;;;;;;;55.13;52.13;;;;;;;21.06;49.13;101924.44;5058271;28;20456;-84
2023/05/13 02:38:53;;;;;;;52.35;49.20;;;;;;;21.05;49.01;101928.31;5041707;28;20043;-85
2023/05/13 02:41:18;;;;;;;50.95;48.30;;;;;;;21.04;49.47;101923.09;5075683;28;20499;-85
2023/05/13 02:43:44;;;;;;;53.60;50.90;;;;;;;21.02;49.56;101926.16;5075773;28;20028;-84
2023/05/13 02:46:10;;;;;;;54.60;51.70;;;;;;;21.01;49.44;101929.16;5075410;28;20032;-85
2023/05/13 02:48:35;;;;;;;50.70;47.85;;;;;;;20.99;49.44;101923.13;5075521;28;20029;-82
2023/05/13 02:51:00;;;;;;;52.92;49.83;;;;;;;20.97;49.26;101934.41;5075148;28;20059;-84
2023/05/13 02:53:26;;;;;;;54.58;51.60;;;;;;;20.96;49.15;101925.38;5041028;28;20032;-85
2023/05/13 02:55:53;;;;;;;53.65;50.85;;;;;;;20.94;49.34;101918.47;5075336;28;20115;-84
2023/05/13 02:58:18;;;;;;;52.25;49.50;;;;;;;20.92;49.08;101924.28;5041073;28;20029;-84
2023/05/13 03:00:44;;;;;;;53.85;50.92;;;;;;;20.90;49.19;101922.91;5041262;28;20036;-83
2023/05/13 03:03:09;;;;;;;53.00;50.28;;;;;;;20.89;49.26;101924.00;5075538;28;20038;-85
2023/05/13 03:05:34;;;;;;;52.65;49.95;;;;;;;20.87;49.12;101918.81;5057553;28;20086;-85
2023/05/13 03:08:00;;;;;;;53.00;50.17;;;;;;;20.86;49.22;101921.84;5074755;28;20222;-81
2023/05/13 03:10:25;;;;;;;52.80;49.90;;;;;;;20.85;49.34;101925.69;5057591;28;20086;-84
2023/05/13 03:12:51;;;;;;;53.08;50.35;;;;;;;20.83;49.29;101925.16;5040455;28;20123;-85
2023/05/13 03:15:16;;;;;;;52.33;49.55;;;;;;;20.81;49.42;101921.88;5057120;28;20106;-85
2023/05/13 03:17:43;;;;;;;54.15;51.40;;;;;;;20.80;49.47;101922.97;5040300;28;20510;-85
2023/05/13 03:20:09;;;;;;;52.72;49.90;;;;;;;20.78;49.25;101920.50;5075164;28;20459;-84
2023/05/13 03:22:37;;;;;;;51.65;49.00;;;;;;;20.75;49.14;101930.13;5073778;28;20046;-84
2023/05/13 03:25:04;;;;;;;52.47;49.83;;;;;;;20.74;49.28;101927.69;5040460;28;20037;-84
2023/05/13 03:27:29;;;;;;;52.58;49.38;;;;;;;20.70;49.45;101932.91;5056996;28;20040;-85
2023/05/13 03:29:55;;;;;;;53.47;50.72;;;;;;;20.71;49.24;101928.22;5074890;28;20326;-85
2023/05/13 03:32:21;;;;;;;54.35;51.53;;;;;;;20.70;49.11;101934.81;5074993;28;20032;-85
2023/05/13 03:34:47;;;;;;;50.95;48.25;;;;;;;20.67;49.28;101930.72;5057302;28;20051;-84
2023/05/13 03:37:12;;;;;;;54.92;52.03;;;;;;;20.66;49.26;101931.84;5056450;28;20040;-84
2023/05/13 03:39:37;;;;;;;50.67;47.67;;;;;;;20.64;49.45;101931.28;5074833;28;20028;-84
2023/05/13 03:42:03;;;;;;;51.53;48.60;;;;;;;20.63;48.96;101924.16;5074145;28;20040;-82
2023/05/13 03:44:28;;;;;;;52.60;49.60;;;;;;;20.62;48.90;101935.44;5056522;28;20079;-85
2023/05/13 03:46:54;;;;;;;50.15;47.38;;;;;;;20.60;49.24;101935.69;5056182;28;20077;-83
2023/05/13 03:49:19;;;;;;;53.60;50.70;;;;;;;20.59;49.51;101938.72;5056620;28;20040;-85
2023/05/13 03:51:45;;;;;;;52.90;50.15;;;;;;;20.57;48.98;101929.97;5056239;28;20035;-85
2023/05/13 03:54:10;;;;;;;52.05;49.33;;;;;;;20.55;49.53;101943.13;5074692;28;20173;-84
2023/05/13 03:56:35;;;;;;;52.83;50.03;;;;;;;20.53;49.16;101943.38;5056565;28;20052;-84
2023/05/13 03:59:01;;;;;;;50.97;48.38;;;;;;;20.51;49.47;101945.56;5074446;28;20332;-84
2023/05/13 04:01:26;;;;;;;51.00;48.20;;;;;;;20.49;49.38;101947.81;5056651;28;20040;-85
2023/05/13 04:03:52;;;;;;;50.30;47.67;;;;;;;20.49;49.55;101939.56;5057263;28;20119;-84
2023/05/13 04:06:17;;;;;;;52.67;49.78;;;;;;;20.47;48.84;101928.84;5073954;28;20145;-84
2023/05/13 04:08:43;;;;;;;52.60;49.53;;;;;;;20.46;49.31;101937.34;5076053;28;20036;-83
2023/05/13 04:11:08;;;;;;;52.22;49.13;;;;;;;20.42;49.08;101945.34;5056813;28;20482;-84
2023/05/13 04:13:34;;;;;;;51.28;48.55;;;;;;;20.38;49.26;101941.50;5056844;28;20028;-85
2023/05/13 04:16:00;;;;;;;52.03;49.10;;;;;;;20.40;49.10;101946.72;5075199;28;20128;-85
2023/05/13 04:18:26;;;;;;;50.30;47.67;;;;;;;20.39;49.41;101943.16;5056687;28;20033;-84
2023/05/13 04:20:51;;;;;;;52.22;49.20;;;;;;;20.38;49.30;101940.69;5040095;28;20044;-84
2023/05/13 04:23:16;;;;;;;51.08;48.38;;;;;;;20.36;49.51;101941.00;5056272;28;20387;-85
2023/05/13 04:25:42;;;;;;;48.33;45.95;;;;;;;20.34;48.86;101936.88;5074132;28;20032;-85
2023/05/13 04:28:07;;;;;;;50.40;47.58;;;;;;;20.33;49.38;101944.25;5039226;28;20036;-82
2023/05/13 04:30:34;;;;;;;51.22;48.33;;;;;;;20.32;49.39;101945.38;5073959;28;20029;-84
2023/05/13 04:32:59;;;;;;;49.60;47.05;;;;;;;20.30;49.07;101953.88;5055630;28;20115;-85
2023/05/13 04:35:24;;;;;;;49.60;47.10;;;;;;;20.28;49.29;101950.59;5074329;28;20116;-84
2023/05/13 04:37:50;;;;;;;51.78;48.92;;;;;;;20.28;49.30;101958.00;5056703;28;20064;-85
2023/05/13 04:40:15;;;;;;;50.42;47.72;;;;;;;20.25;49.03;101964.88;5074418;28;20051;-85
2023/05/13 04:42:41;;;;;;;49.85;46.95;;;;;;;20.25;49.06;101967.59;5056521;28;20131;-87
2023/05/13 04:45:07;;;;;;;48.83;46.22;;;;;;;20.22;49.01;101959.13;5074401;28;20035;-86
2023/05/13 04:47:36;;;;;;;49.90;47.00;;;;;;;20.21;49.26;101961.06;5055980;28;20044;-86
2023/05/13 04:50:02;;;;;;;50.63;47.97;;;;;;;20.20;49.03;101970.38;5040373;28;20032;-85
2023/05/13 04:52:27;;;;;;;50.67;47.88;;;;;;;20.19;48.98;101974.22;5023537;28;20471;-85
2023/05/13 04:54:53;;;;;;;50.65;47.83;;;;;;;20.20;49.33;101975.84;5073750;28;20456;-86
2023/05/13 04:57:18;;;;;;;50.15;47.35;;;;;;;20.18;49.11;101969.81;5073560;28;20036;-84
2023/05/13 04:59:44;;;;;;;49.38;46.63;;;;;;;20.18;48.93;101975.31;5073660;28;20426;-86
2023/05/13 05:02:09;;;;;;;50.28;47.58;;;;;;;20.16;49.22;101977.53;5039366;28;20032;-83
2023/05/13 05:04:34;;;;;;;49.60;46.80;;;;;;;20.15;49.13;101978.59;5073325;28;20032;-86
2023/05/13 05:07:00;;;;;;;48.78;46.13;;;;;;;20.14;49.37;101976.97;5052124;28;20059;-85
2023/05/13 05:09:25;;;;;;;52.45;49.35;;;;;;;20.15;48.94;101977.78;5052375;28;20036;-86
2023/05/13 05:11:51;;;;;;;49.35;46.65;;;;;;;20.14;49.07;101979.72;5052519;28;20060;-86
2023/05/13 05:14:16;;;;;;;53.17;50.30;;;;;;;20.14;49.08;101979.72;5052768;28;20068;-85
2023/05/13 05:16:42;;;;;;;48.72;46.15;;;;;;;20.14;49.09;101987.13;5053668;28;20380;-85
2023/05/13 05:19:07;;;;;;;48.03;45.40;;;;;;;20.15;49.04;101986.03;5036747;28;20029;-85
2023/05/13 05:21:33;;;;;;;50.35;47.58;;;;;;;20.15;49.11;101986.03;5036588;28;20362;-87
2023/05/13 05:24:00;;;;;;;49.35;46.65;;;;;;;20.14;48.94;101985.22;5053943;28;20025;-86
2023/05/13 05:26:26;;;;;;;50.97;48.30;;;;;;;20.15;49.16;101984.09;5054695;28;20029;-86
2023/05/13 05:28:51;;;;;;;52.17;49.25;;;;;;;20.17;48.87;101983.84;5056155;28;20040;-84
2023/05/13 05:31:17;;;;;;;52.50;49.60;;;;;;;20.16;49.03;101988.50;5059191;28;20587;-84
2023/05/13 05:33:42;;;;;;;47.03;44.53;;;;;;;20.18;48.58;101988.19;5062413;28;20039;-84
2023/05/13 05:36:08;;;;;;;46.13;43.80;;;;;;;20.15;48.94;101984.09;5046886;28;20464;-84
2023/05/13 05:38:33;;;;;;;46.83;44.22;;;;;;;20.16;49.07;101984.91;5066219;28;20096;-85
2023/05/13 05:40:59;;;;;;;47.53;45.10;;;;;;;20.16;48.78;101980.28;5066071;28;20079;-85
2023/05/13 05:43:24;;;;;;;48.78;46.03;;;;;;;20.17;49.04;101989.31;5065650;28;20033;-85
2023/05/13 05:45:50;;;;;;;48.00;45.42;;;;;;;20.17;49.06;101986.56;5066634;28;20033;-85
2023/05/13 05:48:16;;;;;;;50.15;46.38;;;;;;;20.19;49.15;101984.38;5067965;28;20364;-83
2023/05/13 05:50:41;;;;;;;50.58;47.67;;;;;;;20.18;49.15;101990.94;5067761;28;20037;-84
2023/05/13 05:53:06;;;;;;;51.10;48.20;;;;;;;20.18;48.66;101989.03;5050832;28;20106;-83
2023/05/13 05:55:32;;;;;;;49.13;46.50;;;;;;;20.19;49.21;101992.59;5069001;28;20092;-87
2023/05/13 05:58:02;;;;;;;49.83;47.15;;;;;;;20.19;48.90;101987.94;5067579;28;20033;-85
2023/05/13 06:00:28;;;;;;;52.38;49.28;;;;;;;20.20;49.08;101996.97;5067317;28;20113;-85
2023/05/13 06:02:55;;;;;;;48.53;45.92;;;;;;;20.17;49.10;101998.34;5051240;28;20028;-85
2023/05/13 06:05:21;;;;;;;49.45;46.67;;;;;;;20.17;48.82;101995.63;5052192;28;20480;-84
2023/05/13 06:07:46;;;;;;;49.92;47.22;;;;;;;20.16;49.27;101993.97;5078013;28;20064;-84
2023/05/13 06:10:12;;;;;;;53.35;49.92;;;;;;;20.17;48.84;102001.09;5086348;28;20426;-85
2023/05/13 06:12:39;;;;;;;48.22;45.65;;;;;;;20.18;48.82;102002.75;5071607;28;20551;-85
2023/05/13 06:15:09;;;;;;;50.53;47.72;;;;;;;20.18;48.57;101993.69;5072278;28;20115;-85
2023/05/13 06:17:35;;;;;;;50.47;47.58;;;;;;;20.17;49.22;101994.81;5070391;28;20090;-83
2023/05/13 06:20:00;;;;;;;49.17;46.05;;;;;;;20.18;48.85;102007.41;5065473;28;20033;-85
2023/05/13 06:22:26;;;;;;;49.72;46.67;;;;;;;20.19;48.65;102009.88;5062889;28;20403;-84
2023/05/13 06:24:51;;;;;;;50.30;47.60;;;;;;;20.19;48.61;102004.41;5079842;28;20040;-85
2023/05/13 06:27:16;;;;;;;50.65;47.72;;;;;;;20.20;49.07;102010.69;5078736;28;20068;-82
2023/05/13 06:29:42;;;;;;;51.75;48.85;;;;;;;20.18;48.83;102007.41;5059879;28;20030;-84
2023/05/13 06:32:07;;;;;;;49.33;46.47;;;;;;;20.20;48.92;102007.97;5060034;28;20481;-85
2023/05/13 06:34:33;;;;;;;49.88;47.05;;;;;;;20.19;49.15;102004.41;5077180;28;20036;-83
2023/05/13 06:36:58;;;;;;;48.58;45.80;;;;;;;20.20;48.73;102008.78;5076513;28;20041;-85
2023/05/13 06:39:24;;;;;;;51.65;48.70;;;;;;;20.18;48.88;102012.91;5058331;28;20029;-82
2023/05/13 06:41:49;;;;;;;49.20;46.30;;;;;;;20.18;49.24;102012.91;5057887;28;20068;-86
2023/05/13 06:44:14;;;;;;;50.55;47.88;;;;;;;20.20;48.80;102014.25;5057892;28;20381;-85
2023/05/13 06:46:40;;;;;;;51.03;48.03;;;;;;;20.21;49.03;102015.06;5076226;28;20033;-85
2023/05/13 06:49:06;;;;;;;49.10;46.15;;;;;;;20.20;48.66;102011.53;5057488;28;20174;-84
2023/05/13 06:51:33;;;;;;;51.40;48.60;;;;;;;20.19;49.36;102020.03;5075655;28;20047;-82
2023/05/13 06:53:59;;;;;;;49.15;46.50;;;;;;;20.20;48.98;102021.69;5075662;28;20059;-86
2023/05/13 06:56:24;;;;;;;51.80;48.90;;;;;;;20.21;48.99;102026.91;5075372;28;20090;-87
2023/05/13 06:58:51;;;;;;;50.30;47.58;;;;;;;20.22;49.03;102017.56;5057318;28;20037;-84
2023/05/13 07:01:17;;;;;;;50.55;47.65;;;;;;;20.23;49.22;102019.19;5057527;28;20033;-85
2023/05/13 07:03:43;;;;;;;50.33;47.33;;;;;;;20.24;49.21;102031.00;5058346;28;20099;-85
2023/05/13 07:06:08;;;;;;;52.58;49.67;;;;;;;20.25;48.83;102025.22;5058651;28;20037;-84
2023/05/13 07:08:34;;;;;;;50.92;47.83;;;;;;;20.26;49.30;102021.41;5063638;28;20112;-84
2023/05/13 07:10:59;;;;;;;49.50;46.38;;;;;;;20.28;49.24;102015.63;5080886;28;20428;-86
2023/05/13 07:13:25;;;;;;;50.70;47.85;;;;;;;20.30;49.00;102014.25;5058963;28;20044;-81
2023/05/13 07:15:50;;;;;;;49.58;46.97;;;;;;;20.28;49.06;102016.44;5075563;28;20043;-86
2023/05/13 07:18:16;;;;;;;51.25;48.33;;;;;;;20.31;48.89;102018.66;5075217;28;20054;-85
2023/05/13 07:20:41;;;;;;;51.30;48.35;;;;;;;20.32;48.94;102019.47;5075741;28;20391;-83
2023/05/13 07:23:06;;;;;;;49.33;46.38;;;;;;;20.35;49.54;102023.56;5057638;28;20218;-86
2023/05/13 07:25:32;;;;;;;50.95;48.08;;;;;;;20.37;49.07;102021.38;5075398;28;20035;-85
2023/05/13 07:27:57;;;;;;;52.17;49.08;;;;;;;20.38;49.12;102021.09;5057549;28;20043;-86
2023/05/13 07:30:23;;;;;;;49.08;46.28;;;;;;;20.38;49.08;102021.09;5040661;28;20032;-82
2023/05/13 07:32:48;;;;;;;53.42;50.40;;;;;;;20.40;49.60;102021.63;5041783;28;20039;-88
2023/05/13 07:35:15;;;;;;;50.75;47.97;;;;;;;20.44;49.76;102019.19;5075100;28;20029;-82
2023/05/13 07:37:41;;;;;;;51.65;48.67;;;;;;;20.48;49.60;102017.50;5074366;28;20075;-84
2023/05/13 07:40:07;;;;;;;51.55;48.53;;;;;;;20.50;49.59;102020.78;5074423;28;20029;-84
2023/05/13 07:42:33;;;;;;;51.67;48.65;;;;;;;20.53;49.46;102018.31;5074449;28;20024;-88
2023/05/13 07:44:58;;;;;;;54.55;51.45;;;;;;;20.57;49.42;102020.53;5074773;28;20028;-88
2023/05/13 07:47:24;;;;;;;48.45;45.88;;;;;;;20.60;49.59;102017.22;5056374;28;20056;-83
2023/05/13 07:49:49;;;;;;;52.40;49.53;;;;;;;20.62;49.56;102024.09;5056491;28;20123;-87
2023/05/13 07:52:15;;;;;;;55.28;51.72;;;;;;;20.68;49.53;102022.13;5040193;28;20060;-85
2023/05/13 07:54:40;;;;;;;54.15;51.08;;;;;;;20.72;49.89;102015.00;5039333;28;20406;-87
2023/05/13 07:57:06;;;;;;;52.58;49.58;;;;;;;20.76;49.93;102018.81;5057626;28;20021;-85
2023/05/13 07:59:31;;;;;;;52.30;49.40;;;;;;;20.80;49.58;102019.09;5056170;28;20032;-81
2023/05/13 08:01:57;;;;;;;52.97;49.97;;;;;;;20.86;49.86;102021.50;5055896;28;20070;-81
2023/05/13 08:04:22;;;;;;;56.38;53.10;;;;;;;20.87;49.99;102017.69;5055561;28;20081;-82
2023/05/13 08:06:48;;;;;;;56.30;52.97;;;;;;;20.93;49.74;102013.78;5073059;28;20037;-82
2023/05/13 08:09:14;;;;;;;52.90;49.80;;;;;;;21.00;50.24;102016.25;5054730;28;20392;-83
2023/05/13 08:11:39;;;;;;;53.10;50.08;;;;;;;21.05;50.03;102010.72;5072839;28;20037;-83
2023/05/13 08:14:05;;;;;;;56.80;53.40;;;;;;;21.11;50.18;102012.34;5055831;28;20090;-83
2023/05/13 08:16:30;;;;;;;56.00;52.85;;;;;;;21.16;50.07;102015.06;5055818;28;20487;-84
2023/05/13 08:18:56;;;;;;;55.35;52.35;;;;;;;21.20;49.92;102018.06;5073984;28;20036;-83
2023/05/13 08:21:22;;;;;;;54.90;51.63;;;;;;;21.26;50.25;102016.09;5042167;28;20138;-85
2023/05/13 08:23:50;;;;;;;54.72;51.63;;;;;;;21.32;49.88;102015.00;5075323;28;20201;-85
2023/05/13 08:26:15;;;;;;;54.97;51.90;;;;;;;21.40;49.88;102019.91;5073393;28;20105;-86
2023/05/13 08:28:41;;;;;;;56.20;53.10;;;;;;;21.47;50.00;102011.31;5055247;28;20124;-86
2023/05/13 08:31:06;;;;;;;59.10;55.53;;;;;;;21.53;50.00;102013.75;5073364;28;20033;-85
2023/05/13 08:33:33;;;;;;;61.72;58.35;;;;;;;21.60;50.04;102011.50;5073425;28;20036;-83
2023/05/13 08:35:59;;;;;;;57.70;54.05;;;;;;;21.67;50.33;102011.19;5055322;28;20059;-83
2023/05/13 08:38:25;;;;;;;58.22;54.80;;;;;;;21.74;49.97;102016.34;5072801;28;20036;-82
2023/05/13 08:40:51;;;;;;;57.13;53.92;;;;;;;21.80;49.89;102021.53;5073119;28;20057;-88
2023/05/13 08:43:18;;;;;;;59.20;55.85;;;;;;;21.88;50.03;102019.28;5055850;28;20042;-85
2023/05/13 08:45:46;;;;;;;59.22;55.72;;;;;;;21.96;49.91;102018.66;5073332;28;20036;-87
2023/05/13 08:48:17;;;;;;;61.53;58.13;;;;;;;22.02;50.50;102023.84;5073355;28;20521;-87
2023/05/13 08:50:43;;;;;;;60.20;56.70;;;;;;;22.11;50.37;102020.44;5073108;28;20084;-87
2023/05/13 08:53:11;;;;;;;59.63;56.53;;;;;;;22.18;50.11;102009.94;5073284;28;20032;-81
2023/05/13 08:55:38;;;;;;;63.15;59.65;;;;;;;22.25;50.22;102016.75;5073776;28;20056;-86
2023/05/13 08:58:03;;;;;;;68.38;62.63;;;;;;;22.35;49.98;102015.00;5065399;28;20060;-86
2023/05/13 09:00:29;;;;;;;63.95;59.88;;;;;;;22.42;50.38;102010.78;5056943;28;20143;-85
2023/05/13 09:02:54;;;;;;;64.45;60.35;;;;;;;22.50;49.88;102014.00;5072971;28;20036;-85
2023/05/13 09:05:20;;;;;;;63.28;59.75;;;;;;;22.58;50.37;102013.34;5055508;28;20413;-87
2023/05/13 09:07:46;;;;;;;66.50;62.85;;;;;;;22.66;50.45;102010.81;5072601;28;20067;-85
2023/05/13 09:10:11;;;;;;;64.10;60.75;;;;;;;22.74;50.10;102008.50;5055782;28;20040;-86
2023/05/13 09:12:51;;;;;;;68.00;63.50;;;;;;;22.81;50.42;102004.28;5055126;28;20408;-85
2023/05/13 09:15:18;;;;;;;64.57;60.88;;;;;;;22.90;50.12;102008.00;5078975;28;20034;-84
2023/05/13 09:17:48;;;;;;;65.38;61.72;;;;;;;23.00;50.06;102001.56;5083856;28;20032;-86
2023/05/13 09:20:15;;;;;;;66.53;62.50;;;;;;;23.07;50.28;102002.03;5073780;28;20025;-86
2023/05/13 09:22:47;;;;;;;65.72;62.22;;;;;;;23.17;50.31;102005.78;5076927;28;20082;-87
2023/05/13 09:25:15;;;;;;;65.63;61.88;;;;;;;23.26;50.28;102001.25;5076887;28;20035;-87
2023/05/13 09:27:45;;;;;;;68.00;64.15;;;;;;;23.37;50.45;102007.41;5076562;28;20452;-88
2023/05/13 09:30:11;;;;;;;67.50;63.72;;;;;;;23.45;50.52;102003.97;5076933;28;20471;-90
2023/05/13 09:32:39;;;;;;;67.78;64.03;;;;;;;23.52;50.68;102004.41;5076866;28;20032;-89
2023/05/13 09:35:18;;;;;;;;;;;;;;;23.67;50.55;102004.16;5059990;28;20036;-88
2023/05/13 09:37:47;;;;;;;68.43;64.15;;;;;;;23.69;50.13;101995.59;5076239;28;20023;-79
2023/05/13 09:40:15;;;;;;;67.25;63.78;;;;;;;23.75;50.93;101999.94;5076236;28;20361;-76
2023/05/13 09:42:45;;;;;;;73.18;69.38;;;;;;;23.83;50.48;101995.66;5058625;28;20119;-82
2023/05/13 09:45:12;;;;;;;71.32;67.57;;;;;;;23.91;50.15;102004.09;5058150;28;20093;-83
2023/05/13 09:47:39;;;;;;;70.90;67.30;;;;;;;24.01;50.14;102002.25;5075950;28;20024;-82
2023/05/13 09:50:05;;;;;;;73.82;69.93;;;;;;;24.09;50.32;101994.09;5076260;28;20033;-82
2023/05/13 09:52:32;;;;;;;71.65;68.05;;;;;;;24.16;50.37;102005.53;5058050;28;20111;-83
2023/05/13 09:54:58;;;;;;;71.60;67.60;;;;;;;24.26;50.43;101995.44;5058714;28;20032;-83
2023/05/13 09:57:27;;;;;;;73.50;69.70;;;;;;;24.35;50.31;101996.38;5075936;28;20021;-82
2023/05/13 09:59:57;;;;;;;76.70;72.90;;;;;;;24.44;50.03;101989.00;5041223;28;20094;-82
2023/05/13 10:02:23;;;;;;;74.28;70.47;;;;;;;24.53;49.79;101989.97;5075513;28;20032;-82
2023/05/13 10:04:51;;;;;;;77.80;73.90;;;;;;;24.59;50.50;101990.69;5058342;28;20036;-81
2023/05/13 10:07:19;;;;;;;75.35;71.70;;;;;;;24.69;50.47;101984.13;5075844;28;20060;-82
2023/05/13 10:09:46;;;;;;;74.25;70.47;;;;;;;24.77;50.43;101981.47;5075785;28;20379;-82
2023/05/13 10:12:13;;;;;;;74.97;71.18;;;;;;;24.86;50.21;101992.59;5041146;28;20495;-83
2023/05/13 10:14:40;;;;;;;77.70;73.82;;;;;;;24.95;49.88;101978.88;5058403;28;20432;-83
2023/05/13 10:17:07;;;;;;;79.30;75.30;;;;;;;25.02;50.32;101982.03;5075627;28;20036;-82
2023/05/13 10:19:33;;;;;;;78.05;74.05;;;;;;;25.10;50.29;101977.69;5075910;28;20483;-81
2023/05/13 10:21:59;;;;;;;79.20;75.07;;;;;;;25.17;50.04;101980.88;5057863;28;20414;-82
2023/05/13 10:24:26;;;;;;;82.88;78.88;;;;;;;25.25;49.95;101972.69;5075748;28;20032;-83
2023/05/13 10:26:52;;;;;;;87.35;83.15;;;;;;;25.31;50.06;101970.59;5075431;28;20033;-82
2023/05/13 10:29:18;;;;;;;79.90;75.97;;;;;;;25.38;49.82;101971.00;5057355;28;20036;-82
2023/05/13 10:31:45;;;;;;;80.90;76.97;;;;;;;25.46;50.22;101972.19;5074780;28;20033;-83
2023/05/13 10:34:11;;;;;;;83.53;79.13;;;;;;;25.51;50.23;101971.25;5057584;28;20357;-82
2023/05/13 10:36:55;;;;;;;84.43;80.30;;;;;;;25.58;49.91;101969.69;5074970;28;20460;-82
2023/05/13 10:39:51;;;;;;;84.03;80.03;;;;;;;25.68;49.26;101968.59;5075474;28;20024;-82
2023/05/13 10:42:35;;;;;;;82.68;78.40;;;;;;;25.75;49.45;101966.19;5057838;28;20044;-82
2023/05/13 10:45:00;;;;;;;82.68;78.68;;;;;;;25.82;49.44;101961.03;5076438;28;20048;-82
2023/05/13 10:47:26;;;;;;;84.38;80.28;;;;;;;25.90;50.00;101959.47;5057208;28;20388;-83
2023/05/13 10:49:52;;;;;;;88.35;84.18;;;;;;;25.97;49.28;101961.78;5057089;28;20036;-82
2023/05/13 10:52:18;;;;;;;83.15;79.10;;;;;;;26.02;49.21;101962.47;5056983;28;20025;-82
2023/05/13 10:54:59;;;;;;;87.63;83.35;;;;;;;26.11;48.66;101968.06;5074926;28;20388;-84
2023/05/13 10:57:37;;;;;;;83.85;79.90;;;;;;;26.18;49.62;101971.16;5074979;28;20028;-80
2023/05/13 11:00:17;;;;;;;88.10;83.95;;;;;;;26.24;49.34;101967.13;5056650;28;20024;-83
2023/05/13 11:02:43;;;;;;;84.78;80.60;;;;;;;26.28;48.92;101961.75;5057224;28;20041;-83
2023/05/13 11:05:17;;;;;;;85.25;81.32;;;;;;;26.33;48.86;101956.06;5074666;28;20028;-81
2023/05/13 11:07:54;;;;;;;87.55;83.30;;;;;;;26.41;48.22;101973.84;5074940;28;20064;-84